Time;durP1;ratioP1;P1;durP2;ratioP2;P2;SDS_P1;SDS_P2;PMS_P1;PMS_P2;Temp;Humidity;BMP_temperature;BMP_pressure;BME280_temperature;BME280_humidity;BME280_pressure;Samples;Min_cycle;Max_cycle;Signal;HPM_P1;HPM_P2
2022/07/17 00:01:04;;;;;;;;;11.00;10.80;;;;;21.63;48.49;99389.53;6258316;27;97084;-57
2022/07/17 00:04:07;;;;;;;;;10.00;10.00;;;;;21.63;48.37;99386.78;6263146;27;97252;-58
2022/07/17 00:07:11;;;;;;;;;10.00;10.00;;;;;21.63;48.21;99392.28;6262657;27;97101;-57
2022/07/17 00:10:14;;;;;;;;;11.00;10.80;;;;;21.60;48.09;99393.63;6262292;27;97503;-59
2022/07/17 00:13:18;;;;;;;;;10.00;9.50;;;;;21.57;48.36;99397.78;6260578;27;97639;-59
2022/07/17 00:16:23;;;;;;;;;12.00;11.00;;;;;21.56;48.21;99401.63;6263045;27;97487;-59
2022/07/17 00:19:27;;;;;;;;;10.20;10.20;;;;;21.55;48.36;99396.44;6261407;27;96755;-59
2022/07/17 00:22:30;;;;;;;;;11.00;11.00;;;;;21.55;48.06;99396.44;6262327;27;97132;-59
2022/07/17 00:25:34;;;;;;;;;13.00;13.00;;;;;21.53;48.18;99396.72;6262110;27;97433;-57
2022/07/17 00:28:38;;;;;;;;;11.50;11.50;;;;;21.49;48.32;99400.28;6261958;27;97436;-57
2022/07/17 00:31:43;;;;;;;;;9.00;9.00;;;;;21.47;48.25;99405.22;6236597;27;96693;-58
2022/07/17 00:34:47;;;;;;;;;9.00;9.00;;;;;21.46;48.35;99404.41;6261914;27;97566;-56
2022/07/17 00:37:51;;;;;;;;;12.20;11.60;;;;;21.43;48.14;99409.63;6262149;27;96784;-57
2022/07/17 00:40:56;;;;;;;;;11.60;11.40;;;;;21.40;47.88;99412.94;6262172;27;96570;-57
2022/07/17 00:44:05;;;;;;;;;11.00;10.00;;;;;21.36;47.86;99417.34;6260707;27;98397;-58
2022/07/17 00:47:13;;;;;;;;;12.00;12.00;;;;;21.33;48.07;99418.72;6262541;27;97452;-57
2022/07/17 00:50:17;;;;;;;;;11.40;11.00;;;;;21.29;48.22;99412.16;6261867;27;96877;-58
2022/07/17 00:53:22;;;;;;;;;9.00;9.00;;;;;21.30;47.97;99429.44;6262118;27;97500;-59
2022/07/17 00:56:26;;;;;;;;;11.00;11.00;;;;;21.26;48.29;99420.13;6261490;27;97528;-60
2022/07/17 00:59:31;;;;;;;;;11.00;11.00;;;;;21.23;47.87;99418.75;6261896;27;96771;-58
2022/07/17 01:02:36;;;;;;;;;11.60;11.00;;;;;21.08;48.00;99408.59;6259920;27;98288;-55
2022/07/17 01:05:40;;;;;;;;;11.00;11.00;;;;;21.19;47.93;99425.91;6261616;27;96499;-58
2022/07/17 01:08:44;;;;;;;;;12.40;12.00;;;;;21.16;48.04;99426.44;6259684;27;96883;-57
2022/07/17 01:11:48;;;;;;;;;11.80;11.00;;;;;21.12;47.91;99428.06;6259085;27;96614;-59
2022/07/17 01:14:52;;;;;;;;;9.60;9.00;;;;;21.09;48.06;99432.19;6243610;27;98152;-57
2022/07/17 01:17:58;;;;;;;;;4.00;3.60;;;;;20.94;47.84;99421.25;6262258;27;97881;-58
2022/07/17 01:21:07;;;;;;;;;11.50;10.50;;;;;21.03;47.98;99422.31;6237054;28;96530;-59
2022/07/17 01:24:10;;;;;;;;;11.00;10.00;;;;;21.01;47.64;99412.75;6257810;27;97480;-58
2022/07/17 01:27:14;;;;;;;;;12.00;12.00;;;;;21.00;47.89;99419.31;6265593;27;96482;-58
2022/07/17 01:30:18;;;;;;;;;9.75;9.75;;;;;20.97;47.46;99428.91;6264507;27;96284;-57
2022/07/17 01:33:22;;;;;;;;;12.00;12.00;;;;;20.94;47.61;99425.91;6265184;27;97287;-57
2022/07/17 01:36:28;;;;;;;;;9.00;8.80;;;;;20.91;47.53;99429.22;6263659;27;97305;-61
2022/07/17 01:42:52;;;;;;;;;10.60;10.00;;;;;20.83;47.95;99422.34;6264375;27;97730;-58
2022/07/17 01:45:55;;;;;;;;;10.00;10.00;;;;;20.78;48.04;99422.34;6262352;27;97476;-58
2022/07/17 01:49:00;;;;;;;;;13.75;13.75;;;;;20.77;48.27;99419.91;6264390;27;97510;-56
2022/07/17 01:52:06;;;;;;;;;12.00;11.00;;;;;20.73;48.07;99427.84;6265890;27;96506;-58
2022/07/17 01:55:11;;;;;;;;;12.00;12.00;;;;;20.71;48.13;99430.88;6265390;27;97497;-56
2022/07/17 01:58:16;;;;;;;;;13.00;13.00;;;;;20.68;48.04;99428.66;6264040;27;98112;-56
2022/07/17 02:01:20;;;;;;;;;11.00;11.00;;;;;20.65;48.06;99423.75;6261952;27;96712;-58
2022/07/17 02:04:24;;;;;;;;;12.00;12.00;;;;;20.62;48.28;99421.53;6265499;27;96955;-59
2022/07/17 02:07:28;;;;;;;;;12.50;12.50;;;;;20.61;47.94;99430.03;6263850;27;96779;-58
2022/07/17 02:10:32;;;;;;;;;11.00;10.00;;;;;20.58;48.15;99433.31;6264550;27;96947;-58
2022/07/17 02:13:35;;;;;;;;;9.00;9.00;;;;;20.50;47.99;99423.75;6263118;27;97267;-60
2022/07/17 02:16:38;;;;;;;;;12.50;11.75;;;;;20.57;48.23;99426.22;6265765;27;96704;-58
2022/07/17 02:19:42;;;;;;;;;12.40;11.60;;;;;20.56;48.39;99430.03;6263286;27;97583;-62
2022/07/17 02:22:46;;;;;;;;;11.00;11.00;;;;;20.54;48.16;99424.00;6265409;27;97266;-57
2022/07/17 02:25:50;;;;;;;;;17.00;17.00;;;;;20.50;48.35;99428.38;6263927;27;97669;-59
2022/07/17 02:28:54;;;;;;;;;11.20;11.20;;;;;20.47;48.39;99438.00;6263516;27;97185;-58
2022/07/17 02:31:57;;;;;;;;;11.40;11.40;;;;;20.46;48.24;99430.84;6263550;27;97649;-57
2022/07/17 02:35:01;;;;;;;;;10.00;10.00;;;;;20.45;48.46;99428.38;6265169;27;97176;-57
2022/07/17 02:38:05;;;;;;;;;14.00;13.50;;;;;20.44;48.52;99430.31;6262207;27;96731;-58
2022/07/17 02:41:09;;;;;;;;;12.20;11.20;;;;;20.42;48.72;99420.72;6263419;27;97523;-56
2022/07/17 02:44:12;;;;;;;;;14.40;14.40;;;;;20.39;48.70;99432.22;6263797;27;97406;-59
2022/07/17 02:47:22;;;;;;;;;13.00;11.40;;;;;20.24;48.44;99416.53;6263436;27;97365;-55
2022/07/17 02:50:25;;;;;;;;;16.00;15.20;;;;;20.29;48.76;99428.34;6263629;27;98066;-59
2022/07/17 02:53:30;;;;;;;;;10.00;9.20;;;;;20.30;48.57;99434.63;6262408;27;97373;-55
2022/07/17 02:56:33;;;;;;;;;11.00;11.00;;;;;20.27;48.55;99435.19;6264079;27;97749;-59
2022/07/17 02:59:37;;;;;;;;;11.00;10.00;;;;;20.27;48.51;99430.53;6264069;27;96393;-58
2022/07/17 03:02:40;;;;;;;;;9.40;9.40;;;;;20.24;48.74;99433.81;6262712;27;97547;-57
2022/07/17 03:05:43;;;;;;;;;12.00;11.00;;;;;20.24;48.68;99430.25;6263747;27;97432;-59
2022/07/17 03:08:49;;;;;;;;;12.67;12.00;;;;;20.25;48.47;99437.38;6262501;27;96913;-60
2022/07/17 03:11:52;;;;;;;;;13.00;12.00;;;;;20.08;48.69;99412.16;6264808;27;97185;-56
2022/07/17 03:14:56;;;;;;;;;13.00;13.00;;;;;20.23;48.83;99445.03;6262598;27;97603;-56
2022/07/17 03:17:59;;;;;;;;;10.50;10.50;;;;;20.21;48.55;99448.03;6263301;27;97628;-59
2022/07/17 03:21:03;;;;;;;;;11.60;10.60;;;;;20.21;48.87;99442.56;6246076;27;97731;-59
2022/07/17 03:24:08;;;;;;;;;9.20;9.00;;;;;20.22;48.80;99446.13;6259977;27;96999;-57
2022/07/17 03:27:11;;;;;;;;;12.00;12.00;;;;;20.21;48.81;99450.78;6264037;27;97566;-61
2022/07/17 03:30:14;;;;;;;;;12.00;12.00;;;;;20.20;48.81;99453.78;6227376;27;98266;-55
2022/07/17 03:33:18;;;;;;;;;14.25;14.00;;;;;20.20;49.00;99451.88;6263570;27;96308;-57
2022/07/17 03:36:21;;;;;;;;;11.40;10.00;;;;;20.24;49.05;99463.09;6263045;27;97829;-59
2022/07/17 03:39:28;;;;;;;;;12.40;11.60;;;;;20.25;48.63;99465.56;6263517;27;96608;-59
2022/07/17 03:42:31;;;;;;;;;12.00;11.00;;;;;20.29;48.79;99463.09;6263221;27;97416;-57
2022/07/17 03:45:35;;;;;;;;;11.60;11.00;;;;;20.32;48.83;99476.31;6262808;27;97438;-58
2022/07/17 03:48:38;;;;;;;;;9.20;9.20;;;;;20.30;48.61;99468.34;6262285;27;97538;-58
2022/07/17 03:51:42;;;;;;;;;10.00;10.00;;;;;20.40;48.66;99474.94;6261048;27;97230;-58
2022/07/17 03:54:47;;;;;;;;;13.00;12.00;;;;;20.42;49.07;99483.72;6262326;27;98023;-57
2022/07/17 03:57:50;;;;;;;;;10.20;10.20;;;;;20.46;48.76;99477.41;6261692;27;96643;-58
2022/07/17 04:00:54;;;;;;;;;10.40;10.40;;;;;20.49;48.77;99474.13;6262830;27;96555;-58
2022/07/17 04:03:58;;;;;;;;;12.40;12.00;;;;;20.57;48.84;99490.06;6261332;27;96775;-56
2022/07/17 04:07:03;;;;;;;;;11.00;10.00;;;;;20.62;48.76;99481.00;6237031;28;98528;-57
2022/07/17 04:10:10;;;;;;;;;11.40;11.00;;;;;20.67;48.74;99487.28;6247560;27;96832;-58
2022/07/17 04:13:14;;;;;;;;;13.60;13.60;;;;;20.73;48.45;99486.19;6238473;27;96864;-56
2022/07/17 04:16:17;;;;;;;;;12.00;12.00;;;;;20.80;48.53;99490.59;6261588;27;97442;-60
2022/07/17 04:19:21;;;;;;;;;11.00;10.25;;;;;20.85;48.20;99494.16;6238256;28;97444;-58
2022/07/17 04:22:25;;;;;;;;;9.00;9.00;;;;;20.89;48.24;99495.25;6249442;27;97604;-64
2022/07/17 04:25:29;;;;;;;;;13.00;12.20;;;;;20.94;48.29;99491.69;6262179;27;98017;-60
2022/07/17 04:28:33;;;;;;;;;10.60;10.00;;;;;21.02;48.43;99504.84;6260672;27;96827;-57
2022/07/17 04:31:38;;;;;;;;;11.60;11.60;;;;;21.10;48.11;99502.38;6261620;27;96821;-58
2022/07/17 04:34:42;;;;;;;;;11.00;10.20;;;;;21.17;47.93;99505.69;6262881;27;97509;-60
2022/07/17 04:37:45;;;;;;;;;10.25;9.00;;;;;21.26;47.54;99514.16;6260319;27;98033;-57
2022/07/17 04:40:50;;;;;;;;;11.80;11.00;;;;;21.33;47.62;99509.22;6262848;27;97527;-59
2022/07/17 04:43:53;;;;;;;;;13.00;11.00;;;;;21.27;47.59;99488.41;6261308;27;97367;-59
2022/07/17 04:46:56;;;;;;;;;11.00;10.00;;;;;21.49;47.22;99513.59;6262153;27;97450;-56
2022/07/17 04:50:00;;;;;;;;;12.80;11.80;;;;;21.55;46.89;99512.47;6261183;27;98257;-56
2022/07/17 04:53:03;;;;;;;;;9.00;9.00;;;;;21.63;46.81;99519.31;6262074;27;96678;-62
2022/07/17 04:56:08;;;;;;;;;8.75;8.75;;;;;21.67;46.39;99522.31;6262684;27;96408;-55
2022/07/17 04:59:11;;;;;;;;;8.25;8.25;;;;;21.74;46.36;99522.88;6259108;27;97531;-58
2022/07/17 05:02:15;;;;;;;;;10.00;9.00;;;;;21.82;46.52;99527.78;6261013;27;97507;-56
2022/07/17 05:05:19;;;;;;;;;8.60;8.60;;;;;21.94;46.50;99537.34;6262209;27;96685;-55
2022/07/17 05:08:22;;;;;;;;;11.00;11.00;;;;;22.03;46.03;99527.47;6260363;27;97418;-57
2022/07/17 05:11:27;;;;;;;;;10.00;10.00;;;;;22.15;45.89;99535.34;6260292;27;97948;-61
2022/07/17 05:14:31;;;;;;;;;12.40;12.00;;;;;22.26;45.58;99534.22;6261527;27;97026;-59
2022/07/17 05:17:34;;;;;;;;;10.33;10.00;;;;;22.37;45.57;99529.50;6260952;27;97460;-58
2022/07/17 05:20:37;;;;;;;;;12.00;11.40;;;;;22.48;44.88;99531.06;6241812;27;96822;-60
2022/07/17 05:23:41;;;;;;;;;11.00;10.00;;;;;22.56;44.18;99526.91;6260885;27;97359;-56
2022/07/17 05:26:48;;;;;;;;;12.60;12.00;;;;;22.67;44.05;99533.97;6262577;27;97076;-58
2022/07/17 05:29:51;;;;;;;;;11.00;11.00;;;;;22.77;44.15;99540.25;6260181;27;97582;-64
2022/07/17 05:32:55;;;;;;;;;10.40;10.00;;;;;22.85;43.89;99541.56;6258917;27;96702;-60
2022/07/17 05:35:58;;;;;;;;;14.40;14.00;;;;;22.93;43.31;99554.69;6262142;27;97695;-58
2022/07/17 05:39:02;;;;;;;;;4.50;3.75;;;;;22.97;43.43;99544.78;6261238;27;97453;-58
2022/07/17 05:42:07;;;;;;;;;6.60;5.60;;;;;23.05;43.33;99557.09;6260707;27;97425;-59
2022/07/17 05:45:10;;;;;;;;;10.20;10.20;;;;;23.09;42.50;99553.47;6260913;27;96795;-58
2022/07/17 05:48:14;;;;;;;;;10.50;9.00;;;;;23.17;42.96;99560.28;6261395;27;97911;-56
2022/07/17 05:51:19;;;;;;;;;11.50;10.00;;;;;23.24;42.91;99553.34;6259493;27;97627;-60
2022/07/17 05:54:27;;;;;;;;;7.20;7.20;;;;;23.32;42.15;99554.66;6260788;27;97043;-57
2022/07/17 05:57:32;;;;;;;;;7.00;7.00;;;;;23.37;42.13;99557.38;6242170;27;97373;-57
2022/07/17 06:00:35;;;;;;;;;8.00;7.00;;;;;23.43;41.87;99558.13;6257637;27;96903;-58
2022/07/17 06:03:39;;;;;;;;;12.00;12.00;;;;;23.54;42.36;99555.03;6258303;27;96940;-61
2022/07/17 06:06:42;;;;;;;;;11.00;10.40;;;;;23.64;42.14;99560.44;6258799;27;97607;-58
2022/07/17 06:09:46;;;;;;;;;10.60;10.00;;;;;23.70;41.56;99563.97;6258912;27;97954;-56
2022/07/17 06:12:52;;;;;;;;;9.00;8.00;;;;;23.77;41.17;99575.44;6265915;27;97052;-58
2022/07/17 06:15:58;;;;;;;;;11.00;11.00;;;;;23.86;41.41;99572.88;6264202;27;100091;-62
2022/07/17 06:19:01;;;;;;;;;10.00;9.60;;;;;23.89;40.73;99578.63;6263691;27;98416;-60
2022/07/17 06:22:05;;;;;;;;;8.00;8.00;;;;;23.96;40.60;99579.09;6265353;27;96819;-58
2022/07/17 06:25:10;;;;;;;;;8.20;8.20;;;;;24.02;40.21;99588.94;6263838;27;97066;-59
2022/07/17 06:28:15;;;;;;;;;10.00;10.00;;;;;24.09;40.25;99588.59;6263067;27;96764;-59
2022/07/17 06:31:18;;;;;;;;;4.80;4.80;;;;;24.15;40.51;99585.47;6263334;27;97394;-56
2022/07/17 06:34:22;;;;;;;;;12.40;12.40;;;;;24.23;40.36;99585.97;6262401;27;97802;-58
2022/07/17 06:37:25;;;;;;;;;10.00;10.00;;;;;24.31;40.29;99596.34;6265047;27;97235;-61
2022/07/17 06:40:28;;;;;;;;;4.60;4.60;;;;;24.32;40.09;99595.22;6261483;27;97582;-57
2022/07/17 06:43:33;;;;;;;;;3.00;2.60;;;;;24.41;39.58;99593.47;6262626;27;96794;-60
2022/07/17 06:46:37;;;;;;;;;18.40;17.80;;;;;24.48;39.55;99594.72;6262002;27;97636;-58
2022/07/17 06:49:41;;;;;;;;;8.00;8.00;;;;;24.54;39.51;99595.47;6264529;27;96857;-58
2022/07/17 06:52:44;;;;;;;;;10.00;9.00;;;;;24.63;39.77;99596.47;6247056;27;96512;-56
2022/07/17 06:55:49;;;;;;;;;10.00;10.00;;;;;24.72;39.69;99599.41;6261996;27;99815;-57
2022/07/17 06:58:54;;;;;;;;;8.75;8.75;;;;;24.79;39.28;99599.81;6261534;27;96966;-54
2022/07/17 07:01:57;;;;;;;;;7.33;6.33;;;;;24.90;39.15;99601.34;6268011;27;97084;-56
2022/07/17 07:05:01;;;;;;;;;9.40;9.00;;;;;25.01;39.04;99594.56;6264437;27;97401;-57
2022/07/17 07:08:05;;;;;;;;;8.00;8.00;;;;;25.10;38.96;99597.47;6258702;27;97327;-57
2022/07/17 07:11:08;;;;;;;;;8.60;8.00;;;;;25.20;38.11;99592.63;6262712;27;97713;-59
2022/07/17 07:14:13;;;;;;;;;12.00;12.00;;;;;25.28;38.17;99599.38;6264382;27;97698;-55
2022/07/17 07:17:16;;;;;;;;;8.40;8.00;;;;;25.36;38.71;99607.00;6243478;27;97019;-58
2022/07/17 07:20:20;;;;;;;;;8.00;7.00;;;;;25.43;38.81;99597.19;6263995;27;97391;-55
2022/07/17 07:23:24;;;;;;;;;8.00;8.00;;;;;25.54;38.36;99603.38;6228221;27;97571;-56
2022/07/17 07:26:28;;;;;;;;;5.00;4.75;;;;;25.63;37.80;99606.28;6263785;27;97100;-57
2022/07/17 07:29:33;;;;;;;;;6.00;6.00;;;;;25.76;37.92;99605.47;6256707;27;97123;-57
2022/07/17 07:32:36;;;;;;;;;6.20;6.00;;;;;25.87;37.47;99612.47;6239213;27;97364;-55
2022/07/17 07:35:40;;;;;;;;;6.00;6.00;;;;;26.00;37.32;99613.63;6257221;27;97475;-61
2022/07/17 07:38:45;;;;;;;;;6.00;6.00;;;;;26.12;36.91;99603.69;6256714;27;97539;-59
2022/07/17 07:41:49;;;;;;;;;7.50;7.50;;;;;26.22;36.60;99608.22;6242461;27;97412;-59
2022/07/17 07:44:54;;;;;;;;;5.00;5.00;;;;;26.28;35.52;99601.47;6256518;27;98524;-57
2022/07/17 07:47:58;;;;;;;;;8.00;8.00;;;;;26.34;35.95;99582.84;6254858;27;98050;-59
2022/07/17 07:51:01;;;;;;;;;9.00;9.00;;;;;26.50;35.56;99597.94;6257476;27;98207;-64
2022/07/17 07:54:05;;;;;;;;;7.25;7.00;;;;;26.60;35.40;99597.72;6261714;27;97456;-58
2022/07/17 07:57:08;;;;;;;;;4.00;3.75;;;;;26.72;34.55;99598.03;6260721;27;98275;-56
2022/07/17 08:00:14;;;;;;;;;5.00;5.00;;;;;26.85;35.28;99601.88;6258860;27;97421;-57
2022/07/17 08:03:18;;;;;;;;;6.00;6.00;;;;;26.97;35.01;99610.50;6260209;27;97557;-59
2022/07/17 08:06:27;;;;;;;;;5.20;5.20;;;;;27.09;35.21;99613.53;6261158;27;97731;-56
2022/07/17 08:09:31;;;;;;;;;5.75;5.25;;;;;27.21;34.66;99615.75;6253892;27;97422;-58
2022/07/17 08:12:34;;;;;;;;;6.00;6.00;;;;;27.38;34.33;99605.59;6259572;27;98365;-58
2022/07/17 08:15:49;;;;;;;;;3.00;3.00;;;;;27.54;33.65;99612.44;6255628;27;97723;-58
2022/07/17 08:18:53;;;;;;;;;5.00;5.00;;;;;27.69;33.59;99618.72;6256169;27;96800;-58
2022/07/17 08:21:56;;;;;;;;;3.00;3.00;;;;;27.81;32.72;99622.53;6258831;27;98065;-58
2022/07/17 08:24:59;;;;;;;;;4.00;4.00;;;;;27.94;32.15;99618.06;6262295;27;97444;-56
2022/07/17 08:28:04;;;;;;;;;6.00;6.00;;;;;28.09;32.47;99619.59;6261511;27;96369;-57
2022/07/17 08:31:10;;;;;;;;;4.00;4.00;;;;;28.16;32.31;99626.31;6260996;27;96916;-58
2022/07/17 08:34:14;;;;;;;;;4.60;4.60;;;;;28.22;31.56;99624.22;6258123;27;96866;-56
2022/07/17 08:37:18;;;;;;;;;3.20;3.20;;;;;28.26;31.60;99631.59;6260348;27;97038;-57
2022/07/17 08:40:25;;;;;;;;;3.00;3.00;;;;;28.32;32.62;99632.25;6261837;27;96794;-56
2022/07/17 08:43:29;;;;;;;;;4.00;3.75;;;;;28.39;31.55;99641.75;6260505;27;96874;-58
2022/07/17 08:46:36;;;;;;;;;5.00;5.00;;;;;28.29;31.77;99614.31;6261574;27;97454;-55
2022/07/17 08:49:45;;;;;;;;;5.00;5.00;;;;;28.55;32.16;99638.53;6260462;27;97950;-55
2022/07/17 08:52:48;;;;;;;;;5.00;5.00;;;;;28.64;31.38;99639.34;6245041;27;97452;-57
2022/07/17 08:55:52;;;;;;;;;5.50;5.50;;;;;28.62;30.65;99647.22;6262916;27;96836;-57
2022/07/17 08:58:56;;;;;;;;;5.00;4.50;;;;;28.63;30.29;99643.28;6260619;27;97202;-58
2022/07/17 09:02:01;;;;;;;;;4.80;4.80;;;;;28.69;30.30;99636.44;6244101;27;96767;-55
2022/07/17 09:05:05;;;;;;;;;4.00;4.00;;;;;28.57;30.83;99611.28;6262440;27;96810;-59
2022/07/17 09:08:10;;;;;;;;;4.40;4.00;;;;;28.63;30.54;99608.06;6262842;27;97798;-56
2022/07/17 09:11:14;;;;;;;;;3.00;3.00;;;;;28.83;30.57;99642.72;6261953;27;96605;-58
2022/07/17 09:14:19;;;;;;;;;4.00;4.00;;;;;28.85;30.71;99644.03;6261560;27;97466;-57
2022/07/17 09:17:26;;;;;;;;;4.00;3.00;;;;;28.83;30.49;99632.41;6261618;27;97229;-56
2022/07/17 09:20:30;;;;;;;;;4.00;4.00;;;;;28.92;29.25;99635.22;6261248;27;97704;-58
2022/07/17 09:23:35;;;;;;;;;4.00;3.50;;;;;29.03;28.71;99638.50;6260682;27;97608;-58
2022/07/17 09:26:45;;;;;;;;;4.50;4.50;;;;;29.03;29.50;99652.38;6243428;27;97762;-56
2022/07/17 09:29:57;;;;;;;;;4.00;4.00;;;;;29.04;29.50;99642.88;6262316;27;97433;-55
2022/07/17 09:33:02;;;;;;;;;5.00;5.00;;;;;29.04;30.35;99645.66;6261226;27;98194;-56
2022/07/17 09:36:12;;;;;;;;;6.00;5.75;;;;;29.08;30.06;99635.53;6262458;27;97519;-55
2022/07/17 09:39:15;;;;;;;;;4.00;4.00;;;;;29.13;29.99;99633.41;6261785;27;97394;-57
2022/07/17 09:42:25;;;;;;;;;3.00;3.00;;;;;29.27;29.00;99630.50;6262138;27;96535;-58
2022/07/17 09:45:28;;;;;;;;;6.60;6.00;;;;;29.28;27.33;99635.72;6262015;27;97103;-58
2022/07/17 09:48:34;;;;;;;;;4.40;4.40;;;;;29.29;28.07;99639.31;6265702;27;97401;-58
2022/07/17 09:51:39;;;;;;;;;4.60;4.00;;;;;29.36;29.26;99638.84;6266827;27;96428;-56
2022/07/17 09:54:45;;;;;;;;;6.00;6.00;;;;;29.44;28.33;99640.81;6266250;27;97810;-57
2022/07/17 09:57:49;;;;;;;;;5.00;5.00;;;;;29.43;27.51;99639.16;6265325;27;97458;-58
2022/07/17 10:00:53;;;;;;;;;4.00;4.00;;;;;29.35;27.62;99649.16;6264494;27;97423;-57
2022/07/17 10:03:58;;;;;;;;;5.00;5.00;;;;;29.25;27.74;99638.34;6259210;27;97694;-59
2022/07/17 10:07:02;;;;;;;;;4.00;3.75;;;;;29.16;27.66;99648.63;6261750;27;96910;-57
2022/07/17 10:10:07;;;;;;;;;2.00;2.00;;;;;29.15;27.84;99642.25;6263222;27;97593;-57
2022/07/17 10:13:12;;;;;;;;;5.00;4.40;;;;;29.26;27.78;99640.78;6264141;27;97244;-63
2022/07/17 10:16:24;;;;;;;;;4.00;4.00;;;;;29.43;27.25;99639.97;6263687;27;97421;-62
2022/07/17 10:19:33;;;;;;;;;4.00;4.00;;;;;29.56;27.53;99627.06;6264024;27;96682;-60
2022/07/17 10:22:44;;;;;;;;;4.60;4.60;;;;;29.60;27.34;99650.28;6263339;27;96608;-64
2022/07/17 10:25:58;;;;;;;;;6.40;6.40;;;;;29.63;28.12;99652.38;6263351;27;97279;-63
2022/07/17 10:29:02;;;;;;;;;3.00;3.00;;;;;29.60;27.72;99658.63;6264293;27;97121;-59
2022/07/17 10:32:09;;;;;;;;;4.00;4.00;;;;;29.57;27.62;99648.94;6261526;27;98537;-56
2022/07/17 10:35:14;;;;;;;;;4.00;3.75;;;;;29.60;26.90;99651.09;6260995;27;97427;-57
2022/07/17 10:38:25;;;;;;;;;4.00;4.00;;;;;29.69;27.48;99648.28;6262761;27;96576;-57
2022/07/17 10:41:28;;;;;;;;;5.00;5.00;;;;;29.78;26.83;99645.50;6261673;27;97605;-59
2022/07/17 10:44:32;;;;;;;;;3.00;2.75;;;;;29.74;26.68;99648.13;6263061;27;97459;-64
2022/07/17 10:47:48;;;;;;;;;4.00;4.00;;;;;29.71;27.02;99651.56;6244361;27;97814;-56
2022/07/17 10:50:55;;;;;;;;;5.60;5.60;;;;;29.76;26.92;99645.84;6260715;27;97222;-58
2022/07/17 10:54:00;;;;;;;;;4.60;4.60;;;;;29.87;27.27;99651.84;6260496;27;97510;-59
2022/07/17 10:57:04;;;;;;;;;5.50;5.25;;;;;30.05;26.71;99651.53;6224294;27;98256;-56
2022/07/17 11:00:08;;;;;;;;;4.00;3.80;;;;;30.19;25.36;99651.31;6252521;27;96957;-56
2022/07/17 11:03:12;;;;;;;;;4.75;4.75;;;;;30.20;25.96;99647.38;6257254;27;97183;-56
2022/07/17 11:06:19;;;;;;;;;5.00;4.00;;;;;30.29;26.19;99655.69;6263225;27;96924;-55
2022/07/17 11:09:23;;;;;;;;;3.00;3.00;;;;;30.25;25.16;99654.72;6263534;27;96973;-58
2022/07/17 11:12:31;;;;;;;;;5.00;5.00;;;;;30.23;25.33;99652.25;6263185;27;97255;-58
2022/07/17 11:15:39;;;;;;;;;4.00;4.00;;;;;30.31;25.41;99647.78;6263940;27;97493;-57
2022/07/17 11:18:48;;;;;;;;;5.60;5.00;;;;;30.44;25.00;99635.66;6263188;27;97604;-60
2022/07/17 11:21:55;;;;;;;;;5.00;5.00;;;;;30.61;25.75;99645.88;6262604;27;96671;-57
2022/07/17 11:24:58;;;;;;;;;3.00;2.80;;;;;30.71;24.87;99649.09;6260724;27;97469;-58
2022/07/17 11:28:02;;;;;;;;;4.00;4.00;;;;;30.80;24.32;99649.03;6263113;27;96542;-57
2022/07/17 11:31:17;;;;;;;;;3.40;3.40;;;;;30.80;24.77;99629.56;6258749;27;97584;-59
2022/07/17 11:34:21;;;;;;;;;2.00;2.00;;;;;31.01;24.48;99646.28;6245346;27;97078;-55
2022/07/17 11:37:35;;;;;;;;;3.00;3.00;;;;;31.09;23.66;99649.03;6263399;27;97191;-58
2022/07/17 11:40:46;;;;;;;;;2.20;2.20;;;;;31.16;23.26;99643.75;6263835;27;98052;-59
2022/07/17 11:43:50;;;;;;;;;3.40;3.40;;;;;31.23;22.85;99649.56;6262966;27;97495;-56
2022/07/17 11:46:54;;;;;;;;;4.00;3.40;;;;;31.17;22.82;99647.34;6263208;27;97614;-59
2022/07/17 11:50:06;;;;;;;;;3.00;3.00;;;;;31.12;23.05;99644.78;6261733;27;96896;-58
2022/07/17 11:53:11;;;;;;;;;2.00;2.00;;;;;31.12;23.36;99651.16;6244489;27;96776;-56
2022/07/17 11:56:21;;;;;;;;;3.00;3.00;;;;;31.24;24.38;99650.38;6263383;27;97379;-59
2022/07/17 11:59:27;;;;;;;;;3.00;3.00;;;;;31.35;23.20;99646.88;6229618;27;97045;-58
2022/07/17 12:02:32;;;;;;;;;4.40;4.00;;;;;31.45;22.55;99636.44;6262040;27;97186;-59
2022/07/17 12:05:37;;;;;;;;;4.00;4.00;;;;;31.44;22.22;99632.84;6262236;27;97506;-59
2022/07/17 12:08:51;;;;;;;;;3.40;3.40;;;;;31.57;22.63;99640.13;6262644;27;97181;-58
2022/07/17 12:11:55;;;;;;;;;2.80;2.80;;;;;31.67;22.00;99633.28;6262928;27;96438;-61
2022/07/17 12:15:00;;;;;;;;;5.00;4.00;;;;;31.53;22.02;99630.78;6262513;27;97374;-61
2022/07/17 12:18:04;;;;;;;;;4.25;4.00;;;;;31.63;22.13;99624.00;6262821;27;96470;-60
2022/07/17 12:21:07;;;;;;;;;5.00;4.60;;;;;31.67;22.30;99638.88;6261976;27;97818;-57
2022/07/17 12:24:19;;;;;;;;;6.00;5.00;;;;;31.68;22.33;99627.38;6262926;27;96983;-58
2022/07/17 12:27:23;;;;;;;;;3.00;3.00;;;;;31.75;21.70;99624.03;6247511;27;97427;-58
2022/07/17 12:30:28;;;;;;;;;3.40;3.40;;;;;31.74;20.94;99620.44;6245427;27;97342;-61
2022/07/17 12:33:32;;;;;;;;;2.00;1.00;;;;;31.77;21.34;99630.06;6262923;27;97417;-55
2022/07/17 12:36:35;;;;;;;;;3.50;3.50;;;;;31.69;21.39;99615.09;6263686;27;97426;-58
2022/07/17 12:39:40;;;;;;;;;5.00;5.00;;;;;31.68;21.78;99630.19;6263614;27;96729;-59
2022/07/17 12:42:44;;;;;;;;;4.40;4.40;;;;;31.68;21.76;99615.41;6262354;27;96614;-58
2022/07/17 12:45:47;;;;;;;;;3.00;3.00;;;;;31.72;21.92;99619.97;6262540;27;96687;-56
2022/07/17 12:48:50;;;;;;;;;4.00;4.00;;;;;31.75;21.45;99621.25;6263973;27;97029;-58
2022/07/17 12:51:54;;;;;;;;;6.60;6.00;;;;;31.82;22.18;99615.91;6263255;27;97516;-63
2022/07/17 12:54:59;;;;;;;;;19.60;18.60;;;;;31.83;21.02;99628.72;6262886;27;96412;-62
2022/07/17 12:58:03;;;;;;;;;13.00;12.00;;;;;31.87;20.84;99624.06;6261020;27;97453;-61
2022/07/17 13:01:07;;;;;;;;;9.50;9.50;;;;;31.91;21.21;99621.41;6261950;27;97548;-58
2022/07/17 13:04:10;;;;;;;;;3.80;3.00;;;;;31.93;21.43;99628.28;6261910;27;96822;-57
2022/07/17 13:07:14;;;;;;;;;4.60;4.60;;;;;31.90;20.71;99617.81;6262435;27;96513;-61
2022/07/17 13:10:18;;;;;;;;;5.00;4.00;;;;;31.90;21.29;99614.22;6260976;27;96783;-56
2022/07/17 13:13:22;;;;;;;;;5.00;5.00;;;;;31.87;21.47;99610.13;6262750;27;96820;-64
2022/07/17 13:16:26;;;;;;;;;5.00;5.00;;;;;31.87;21.77;99623.25;6262229;27;97492;-55
2022/07/17 13:19:30;;;;;;;;;10.40;9.40;;;;;31.88;21.63;99611.75;6261828;27;97022;-59
2022/07/17 13:22:33;;;;;;;;;13.25;12.25;;;;;31.77;21.64;99591.84;6266562;27;97496;-58
2022/07/17 13:25:38;;;;;;;;;6.00;6.00;;;;;31.83;21.32;99607.22;6266715;27;97415;-56
2022/07/17 13:28:41;;;;;;;;;7.20;7.20;;;;;31.82;21.35;99611.16;6266744;27;97415;-62
2022/07/17 13:31:45;;;;;;;;;8.00;7.60;;;;;31.74;21.17;99600.91;6266853;27;96879;-59
2022/07/17 13:34:55;;;;;;;;;11.00;11.00;;;;;31.71;21.41;99601.63;6266782;27;96280;-57
2022/07/17 13:38:01;;;;;;;;;12.50;12.50;;;;;31.64;21.67;99608.91;6266455;27;97432;-60
2022/07/17 13:41:06;;;;;;;;;15.80;14.40;;;;;31.66;21.98;99606.59;6265872;27;97666;-57
2022/07/17 13:44:10;;;;;;;;;37.20;32.00;;;;;31.73;22.25;99601.25;6264199;27;97428;-62
2022/07/17 13:47:13;;;;;;;;;3.00;3.00;;;;;31.76;21.47;99595.84;6242830;27;97179;-55
2022/07/17 13:50:18;;;;;;;;;10.40;9.00;;;;;31.62;21.17;99572.22;6250956;27;98864;-58
2022/07/17 13:53:21;;;;;;;;;8.50;8.00;;;;;31.74;20.69;99594.53;6266646;27;97581;-57
2022/07/17 13:56:26;;;;;;;;;4.00;2.50;;;;;31.75;21.03;99601.75;6266118;27;97544;-60
2022/07/17 13:59:30;;;;;;;;;3.00;3.00;;;;;31.77;20.95;99600.22;6266208;27;96642;-57
2022/07/17 14:02:34;;;;;;;;;4.00;2.60;;;;;31.74;21.62;99598.13;6265477;27;97057;-58
2022/07/17 14:05:38;;;;;;;;;4.00;3.00;;;;;31.78;21.54;99590.69;6264946;27;96951;-57
2022/07/17 14:08:42;;;;;;;;;4.40;4.00;;;;;31.79;21.73;99589.56;6247308;27;96976;-61
2022/07/17 14:11:47;;;;;;;;;3.80;3.20;;;;;31.83;21.76;99584.91;6265594;27;97510;-57
2022/07/17 14:14:50;;;;;;;;;4.67;4.00;;;;;31.87;21.77;99587.00;6265109;27;97124;-55
2022/07/17 14:17:54;;;;;;;;;4.20;3.20;;;;;31.91;21.44;99587.94;6264067;27;98023;-61
2022/07/17 14:20:57;;;;;;;;;4.60;4.60;;;;;31.91;20.63;99591.56;6264894;27;97620;-59
2022/07/17 14:24:01;;;;;;;;;4.25;4.25;;;;;31.88;20.91;99591.41;6265871;27;97443;-59